»·PEaware :: N122RG KMHV-KMHV

N122RG :: KMHV-KMHV

FLIGHT INFORMATION

Flight Status: Arrived
Operator: Privately registered:
United States
More flights under this callsign
Pilot: Anonymous 44788 (44788)
Aircraft: CESSNA 172 SKYHAWK
(C172)
More flights by this aircraft type
Origin: KMHV Mojave
United States
Destination: KMHV Mojave
United States
More flights between these airports :: More routes between these airports
Route: JERID5 JERID V197 PMD
File this flight plan on PilotEdge
Remarks: Local approach work
Altitude:
(Current/Filed)
6,000ft
Speed:
(Current/Filed)
115kts
Departed: 29-Jul-23 07:00 PM
Arrived: 29-Jul-23 07:29 PM
Distance/Time
Traveled:
1nm/0:29
Distance/Time
To Go:
Arrived

Flight Plot

Page will automatically refresh every two minutes.

Flight plan parsing failed; only flown route is shown


Map Options




Map Legend


Flown Route
Filed Route
Departure Airport
Arrival Airport
Navaid (VOR, NDB)
Fix

Horizontal Profiles

Position Reports

Time Latitude Longitude Heading Altitude Ground
Speed
29-Jul-23 18:20 35.057283 -118.164723 69 2773ft 0kts
29-Jul-23 18:21 35.057283 -118.164723 69 2773ft 0kts
29-Jul-23 18:22 35.057283 -118.164723 69 2773ft 0kts
29-Jul-23 18:23 35.057283 -118.164723 69 2773ft 0kts
29-Jul-23 18:24 35.057283 -118.164723 69 2773ft 0kts
29-Jul-23 18:25 35.057283 -118.164723 69 2773ft 0kts
29-Jul-23 18:26 35.057283 -118.164723 69 2773ft 0kts
29-Jul-23 18:27 35.057283 -118.164723 69 2773ft 0kts
29-Jul-23 18:28 35.057283 -118.164723 69 2773ft 0kts
29-Jul-23 18:29 35.057283 -118.164723 69 2773ft 0kts
29-Jul-23 18:30 35.057283 -118.164723 69 2773ft 0kts
29-Jul-23 18:31 35.057283 -118.164723 69 2773ft 0kts
29-Jul-23 18:32 35.057283 -118.164723 69 2773ft 0kts
29-Jul-23 18:33 35.057283 -118.164723 69 2773ft 0kts
29-Jul-23 18:34 35.057283 -118.164723 69 2773ft 0kts
29-Jul-23 18:35 35.057283 -118.164723 69 2773ft 0kts
29-Jul-23 18:36 35.057283 -118.164723 69 2773ft 0kts
29-Jul-23 18:37 35.057283 -118.164723 69 2773ft 0kts
29-Jul-23 18:38 35.057283 -118.164723 69 2773ft 0kts
29-Jul-23 18:38 35.057283 -118.164723 69 2773ft 0kts
29-Jul-23 18:40 35.057283 -118.164723 69 2773ft 0kts
29-Jul-23 18:41 35.057283 -118.164723 69 2773ft 0kts
29-Jul-23 18:42 35.057283 -118.164723 69 2773ft 0kts
29-Jul-23 18:43 35.057283 -118.164723 69 2773ft 0kts
29-Jul-23 18:43 35.057283 -118.164723 69 2773ft 0kts
29-Jul-23 18:44 35.057283 -118.164723 69 2773ft 0kts
29-Jul-23 18:46 35.057283 -118.164723 69 2773ft 0kts
29-Jul-23 18:47 35.057283 -118.164723 69 2773ft 0kts
29-Jul-23 18:48 35.057283 -118.164723 69 2773ft 0kts
29-Jul-23 18:48 35.057283 -118.164723 69 2773ft 0kts
29-Jul-23 18:49 35.057283 -118.164723 69 2773ft 0kts
29-Jul-23 18:50 35.057299 -118.164679 63 2773ft 9kts
29-Jul-23 18:51 35.057597 -118.156048 90 2760ft 27kts
29-Jul-23 18:52 35.057558 -118.145823 90 2737ft 23kts
29-Jul-23 18:53 35.058376 -118.142630 359 2731ft 0kts
29-Jul-23 18:54 35.058376 -118.142630 359 2731ft 0kts
29-Jul-23 18:55 35.058376 -118.142630 359 2731ft 0kts
29-Jul-23 18:56 35.058376 -118.142630 359 2731ft 0kts
29-Jul-23 18:57 35.058376 -118.142630 359 2731ft 0kts
29-Jul-23 18:58 35.058376 -118.142630 359 2731ft 0kts
29-Jul-23 18:59 35.059164 -118.155087 267 3021ft 79kts
29-Jul-23 19:00 35.058562 -118.181775 247 4027ft 79kts
29-Jul-23 19:01 35.044436 -118.201543 222 4975ft 77kts
29-Jul-23 19:02 35.026373 -118.220928 220 5692ft 95kts
29-Jul-23 19:03 35.005492 -118.242516 220 6396ft 100kts
29-Jul-23 19:04 34.984310 -118.264269 219 7095ft 99kts
29-Jul-23 19:05 34.964983 -118.284096 219 7774ft 81kts
29-Jul-23 19:06 34.948475 -118.300956 219 8393ft 86kts
29-Jul-23 19:07 34.928577 -118.321395 220 8903ft 95kts
29-Jul-23 19:08 34.908448 -118.342017 220 9402ft 94kts
29-Jul-23 19:09 34.888590 -118.362324 220 9901ft 92kts
29-Jul-23 19:10 34.863211 -118.363437 140 9974ft 117kts
29-Jul-23 19:11 34.856640 -118.331059 33 9973ft 121kts
29-Jul-23 19:12 34.887193 -118.309910 29 9972ft 122kts
29-Jul-23 19:13 34.916866 -118.286480 37 9972ft 122kts
29-Jul-23 19:14 34.943959 -118.261017 37 9971ft 114kts
29-Jul-23 19:15 34.969916 -118.236706 37 9972ft 113kts
29-Jul-23 19:16 34.995673 -118.212565 37 9972ft 112kts
29-Jul-23 19:17 35.021337 -118.188491 37 9972ft 112kts
29-Jul-23 19:18 35.046510 -118.164858 37 9972ft 112kts
29-Jul-23 19:19 35.071318 -118.141549 37 9972ft 112kts
29-Jul-23 19:20 35.096151 -118.118199 37 9972ft 112kts
29-Jul-23 19:21 35.114683 -118.091350 106 9946ft 97kts
29-Jul-23 19:22 35.087486 -118.086796 192 8947ft 105kts
29-Jul-23 19:23 35.060731 -118.093768 192 7935ft 95kts
29-Jul-23 19:24 35.048352 -118.108004 2 6677ft 106kts
29-Jul-23 19:25 35.048866 -118.106694 6 5275ft 106kts
29-Jul-23 19:26 35.048898 -118.107851 300 4005ft 97kts
29-Jul-23 19:27 35.047996 -118.134914 318 2760ft 85kts
29-Jul-23 19:28 35.055719 -118.144214 313 2730ft 31kts
29-Jul-23 19:29 35.057582 -118.147867 268 2741ft 0kts
29-Jul-23 19:30 35.057601 -118.151360 269 2750ft 37kts
29-Jul-23 19:31 35.057619 -118.162004 270 2769ft 22kts
29-Jul-23 19:32 35.056424 -118.164451 187 2772ft 0kts

Navigation Log

Ident Type
Flight plan parsing failed, navigation log unavailable